createdAt,value
2017-04-26T00:00:15.483Z,8.71
2017-04-26T00:01:15.827Z,8.66
2017-04-26T00:02:15.546Z,8.75
2017-04-26T00:03:16.208Z,8.63
2017-04-26T00:04:15.616Z,8.62
2017-04-26T00:05:15.660Z,8.66
2017-04-26T00:06:15.695Z,8.63
2017-04-26T00:07:16.042Z,8.58
2017-04-26T00:08:15.750Z,8.62
2017-04-26T00:09:16.107Z,8.57
2017-04-26T00:10:16.154Z,8.58
2017-04-26T00:11:15.853Z,8.69
2017-04-26T00:12:15.897Z,8.66
2017-04-26T00:13:16.232Z,8.63
2017-04-26T00:14:16.278Z,8.66
2017-04-26T00:15:16.002Z,8.57
2017-04-26T00:16:16.033Z,8.57
2017-04-26T00:17:16.372Z,8.62
2017-04-26T00:18:16.107Z,8.63
2017-04-26T00:19:16.449Z,8.6
2017-04-26T00:20:16.480Z,8.65
2017-04-26T00:21:16.196Z,8.55
2017-04-26T00:22:16.547Z,8.58
2017-04-26T00:23:16.575Z,8.53
2017-04-26T00:24:16.617Z,8.51
2017-04-26T00:25:16.657Z,8.48
2017-04-26T00:26:16.379Z,8.55
2017-04-26T00:27:16.409Z,8.53
2017-04-26T00:28:16.759Z,8.53
2017-04-26T00:29:16.794Z,8.55
2017-04-26T00:30:16.814Z,8.55
2017-04-26T00:31:16.551Z,8.54
2017-04-26T00:32:16.581Z,8.47
2017-04-26T00:33:16.612Z,8.47
2017-04-26T00:34:16.951Z,8.53
2017-04-26T00:35:16.690Z,8.53
2017-04-26T00:36:16.716Z,8.47
2017-04-26T00:37:16.756Z,8.57
2017-04-26T00:38:17.092Z,8.54
2017-04-26T00:39:17.131Z,8.44
2017-04-26T00:40:17.157Z,8.54
2017-04-26T00:41:17.191Z,8.54
2017-04-26T00:42:16.922Z,8.54
2017-04-26T00:43:17.262Z,8.42
2017-04-26T00:44:17.297Z,8.35
2017-04-26T00:45:17.029Z,8.44
2017-04-26T00:46:17.375Z,8.44
2017-04-26T00:47:17.091Z,8.39
2017-04-26T00:48:17.469Z,8.3
2017-04-26T00:49:17.173Z,8.4
2017-04-26T00:50:17.203Z,8.3
2017-04-26T00:51:17.544Z,8.42
2017-04-26T00:52:17.266Z,8.37
2017-04-26T00:53:17.928Z,8.4
2017-04-26T00:54:17.947Z,8.37
2017-04-26T00:55:17.364Z,8.36
2017-04-26T00:56:17.406Z,8.37
2017-04-26T00:57:17.430Z,8.26
2017-04-26T00:58:18.094Z,8.4
2017-04-26T00:59:17.502Z,8.37
2017-04-26T01:00:17.534Z,8.39
2017-04-26T01:01:18.190Z,8.37
2017-04-26T01:02:17.919Z,8.35
2017-04-26T01:03:17.638Z,8.47
2017-04-26T01:04:17.981Z,8.32
2017-04-26T01:05:17.706Z,8.3
2017-04-26T01:06:17.746Z,8.4
2017-04-26T01:07:17.775Z,8.42
2017-04-26T01:08:17.809Z,8.25
2017-04-26T01:09:17.848Z,8.28
2017-04-26T01:10:18.496Z,8.29
2017-04-26T01:11:17.916Z,8.26
2017-04-26T01:12:17.947Z,8.3
2017-04-26T01:13:18.305Z,8.28
2017-04-26T01:14:18.338Z,8.32
2017-04-26T01:15:18.358Z,8.3
2017-04-26T01:16:18.084Z,8.22
2017-04-26T01:17:18.425Z,8.29
2017-04-26T01:18:18.773Z,8.28
2017-04-26T01:19:18.497Z,8.29
2017-04-26T01:20:18.532Z,8.3
2017-04-26T01:21:18.567Z,8.28
2017-04-26T01:22:18.292Z,8.22
2017-04-26T01:23:18.638Z,8.26
2017-04-26T01:24:18.667Z,8.3
2017-04-26T01:25:18.699Z,8.3
2017-04-26T01:26:18.740Z,8.32
2017-04-26T01:27:18.767Z,8.22
2017-04-26T01:28:18.811Z,8.28
2017-04-26T01:29:18.837Z,8.22
2017-04-26T01:30:18.566Z,8.22
2017-04-26T01:31:18.597Z,8.22
2017-04-26T01:32:19.249Z,8.3
2017-04-26T01:33:18.663Z,8.3
2017-04-26T01:34:18.698Z,8.25
2017-04-26T01:35:18.736Z,8.25
2017-04-26T01:36:19.075Z,8.22
2017-04-26T01:37:18.807Z,8.3
2017-04-26T01:38:19.152Z,8.25
2017-04-26T01:39:18.871Z,8.22
2017-04-26T01:40:19.209Z,8.22
2017-04-26T01:41:18.968Z,8.17
2017-04-26T01:42:18.973Z,8.18
2017-04-26T01:43:19.009Z,8.15
2017-04-26T01:44:19.038Z,8.14
2017-04-26T01:45:19.073Z,8.18
2017-04-26T01:46:19.420Z,8.25
2017-04-26T01:47:19.141Z,8.15
2017-04-26T01:48:19.798Z,8.2
2017-04-26T01:49:19.533Z,8.14
2017-04-26T01:50:19.552Z,8.12
2017-04-26T01:51:19.281Z,8.15
2017-04-26T01:52:19.314Z,8.21
2017-04-26T01:53:19.979Z,8.2
2017-04-26T01:54:19.691Z,8.15
2017-04-26T01:55:19.421Z,8.07
2017-04-26T01:56:19.765Z,8.08
2017-04-26T01:57:19.797Z,8.12
2017-04-26T01:58:19.830Z,8.12
2017-04-26T01:59:19.560Z,8.18
2017-04-26T02:00:19.584Z,8.22
2017-04-26T02:01:19.937Z,8.11
2017-04-26T02:02:20.278Z,8.12
2017-04-26T02:03:19.999Z,8.18
2017-04-26T02:04:19.722Z,8.2
2017-04-26T02:05:19.756Z,8.2
2017-04-26T02:06:19.799Z,8.1
2017-04-26T02:07:19.833Z,8.12
2017-04-26T02:08:20.165Z,8.1
2017-04-26T02:09:19.898Z,8.03
2017-04-26T02:10:19.931Z,8.1
2017-04-26T02:11:19.964Z,8.12
2017-04-26T02:12:20.327Z,8.11
2017-04-26T02:13:20.028Z,8.2
2017-04-26T02:14:20.379Z,8.02
2017-04-26T02:15:20.404Z,8.14
2017-04-26T02:16:20.132Z,8.03
2017-04-26T02:17:20.796Z,8.02
2017-04-26T02:18:20.505Z,8.03
2017-04-26T02:19:20.860Z,8.12
2017-04-26T02:20:20.574Z,8.15
2017-04-26T02:21:20.311Z,8.25
2017-04-26T02:22:20.651Z,8.14
2017-04-26T02:23:20.679Z,8.17
2017-04-26T02:24:21.033Z,8.14
2017-04-26T02:25:20.748Z,8.14
2017-04-26T02:26:20.471Z,8
2017-04-26T02:27:20.522Z,8.04
2017-04-26T02:28:20.547Z,8.12
2017-04-26T02:29:21.198Z,8.12
2017-04-26T02:30:20.614Z,8.14
2017-04-26T02:31:21.279Z,8.07
2017-04-26T02:32:20.671Z,8.17
2017-04-26T02:33:21.022Z,8.11
2017-04-26T02:34:21.045Z,8.08
2017-04-26T02:35:20.783Z,8.02
2017-04-26T02:36:21.122Z,8.02
2017-04-26T02:37:20.844Z,8.03
2017-04-26T02:38:21.188Z,8.03
2017-04-26T02:39:21.226Z,8.02
2017-04-26T02:40:21.252Z,8.04
2017-04-26T02:41:21.594Z,8.08
2017-04-26T02:42:21.634Z,8.07
2017-04-26T02:43:21.351Z,8
2017-04-26T02:44:21.082Z,7.96
2017-04-26T02:45:21.110Z,7.93
2017-04-26T02:46:21.152Z,7.97
2017-04-26T02:47:21.797Z,8.03
2017-04-26T02:48:21.530Z,8.03
2017-04-26T02:49:21.556Z,7.96
2017-04-26T02:50:21.287Z,7.99
2017-04-26T02:51:21.629Z,7.99
2017-04-26T02:52:21.353Z,7.97
2017-04-26T02:53:21.410Z,7.93
2017-04-26T02:54:21.727Z,7.96
2017-04-26T02:55:21.454Z,8
2017-04-26T02:56:21.796Z,7.96
2017-04-26T02:57:21.528Z,8.03
2017-04-26T02:58:21.562Z,8
2017-04-26T02:59:21.911Z,7.89
2017-04-26T03:00:21.927Z,8.03
2017-04-26T03:01:21.968Z,7.96
2017-04-26T03:02:21.697Z,7.99
2017-04-26T03:03:22.341Z,7.94
2017-04-26T03:04:21.758Z,7.96
2017-04-26T03:05:22.103Z,7.94
2017-04-26T03:06:22.127Z,8
2017-04-26T03:07:22.173Z,7.97
2017-04-26T03:08:22.207Z,7.96
2017-04-26T03:09:22.238Z,7.96
2017-04-26T03:10:22.584Z,7.85
2017-04-26T03:11:21.996Z,8
2017-04-26T03:12:22.641Z,7.87
2017-04-26T03:13:22.376Z,7.96
2017-04-26T03:14:22.414Z,8.02
2017-04-26T03:15:22.132Z,8
2017-04-26T03:16:22.164Z,7.87
2017-04-26T03:17:22.222Z,7.97
2017-04-26T03:18:22.544Z,7.99
2017-04-26T03:19:22.888Z,7.97
2017-04-26T03:20:22.295Z,7.92
2017-04-26T03:21:22.331Z,7.93
2017-04-26T03:22:22.682Z,7.94
2017-04-26T03:23:22.414Z,7.9
2017-04-26T03:24:22.757Z,7.94
2017-04-26T03:25:22.498Z,7.87
2017-04-26T03:26:22.504Z,7.9
2017-04-26T03:27:22.855Z,7.84
2017-04-26T03:28:23.189Z,7.9
2017-04-26T03:29:22.917Z,7.9
2017-04-26T03:30:22.945Z,7.92
2017-04-26T03:31:22.672Z,7.89
2017-04-26T03:32:22.713Z,7.9
2017-04-26T03:33:23.047Z,7.87
2017-04-26T03:34:23.081Z,7.92
2017-04-26T03:35:22.814Z,7.87
2017-04-26T03:36:23.148Z,7.92
2017-04-26T03:37:22.880Z,7.85
2017-04-26T03:38:22.910Z,7.9
2017-04-26T03:39:23.250Z,7.85
2017-04-26T03:40:22.975Z,7.92
2017-04-26T03:41:23.637Z,7.89
2017-04-26T03:42:23.048Z,7.92
2017-04-26T03:43:23.609Z,7.93
2017-04-26T03:44:23.420Z,7.93
2017-04-26T03:45:23.147Z,7.93
2017-04-26T03:46:23.186Z,7.94
2017-04-26T03:47:23.528Z,7.97
2017-04-26T03:48:23.247Z,7.97
2017-04-26T03:49:23.592Z,7.87
2017-04-26T03:50:23.314Z,7.92
2017-04-26T03:51:23.662Z,7.85
2017-04-26T03:52:23.378Z,7.92
2017-04-26T03:53:23.726Z,7.92
2017-04-26T03:54:24.074Z,7.89
2017-04-26T03:55:23.485Z,7.92
2017-04-26T03:56:23.831Z,7.94
2017-04-26T03:57:23.869Z,7.97
2017-04-26T03:58:23.591Z,7.89
2017-04-26T03:59:23.619Z,7.92
2017-04-26T04:00:23.965Z,7.9
2017-04-26T04:01:23.994Z,7.9
2017-04-26T04:02:24.028Z,7.89
2017-04-26T04:03:24.067Z,7.92
2017-04-26T04:04:23.790Z,7.96
2017-04-26T04:05:24.130Z,7.9
2017-04-26T04:06:23.859Z,7.97
2017-04-26T04:07:24.198Z,7.96
2017-04-26T04:08:24.248Z,7.99
2017-04-26T04:09:23.956Z,7.9
2017-04-26T04:10:24.304Z,7.89
2017-04-26T04:11:24.339Z,7.97
2017-04-26T04:12:24.057Z,7.99
2017-04-26T04:13:24.406Z,8
2017-04-26T04:14:24.440Z,7.96
2017-04-26T04:15:24.164Z,7.92
2017-04-26T04:16:24.500Z,7.87
2017-04-26T04:17:24.541Z,7.97
2017-04-26T04:18:24.571Z,7.74
2017-04-26T04:19:24.606Z,7.85
2017-04-26T04:20:24.634Z,7.9
2017-04-26T04:21:24.360Z,7.92
2017-04-26T04:22:24.708Z,7.92
2017-04-26T04:23:24.744Z,7.97
2017-04-26T04:24:24.465Z,7.85
2017-04-26T04:25:24.504Z,7.89
2017-04-26T04:26:25.148Z,7.92
2017-04-26T04:27:24.879Z,7.85
2017-04-26T04:28:25.221Z,7.85
2017-04-26T04:29:24.942Z,7.93
2017-04-26T04:30:24.673Z,7.84
2017-04-26T04:31:24.699Z,7.87
2017-04-26T04:32:25.048Z,7.85
2017-04-26T04:33:24.775Z,7.85
2017-04-26T04:34:24.802Z,7.9
2017-04-26T04:35:24.839Z,7.9
2017-04-26T04:36:24.870Z,7.93
2017-04-26T04:37:25.223Z,7.97
2017-04-26T04:38:25.562Z,8
2017-04-26T04:39:25.286Z,7.96
2017-04-26T04:40:25.317Z,7.87
2017-04-26T04:41:25.353Z,8
2017-04-26T04:42:25.692Z,7.92
2017-04-26T04:43:25.422Z,8
2017-04-26T04:44:25.148Z,7.94
2017-04-26T04:45:25.178Z,7.93
2017-04-26T04:46:25.824Z,8.04
2017-04-26T04:47:25.249Z,7.97
2017-04-26T04:48:25.284Z,7.97
2017-04-26T04:49:25.314Z,7.96
2017-04-26T04:50:25.657Z,7.99
2017-04-26T04:51:25.383Z,8.08
2017-04-26T04:52:25.412Z,8.12
2017-04-26T04:53:26.068Z,8.07
2017-04-26T04:54:25.786Z,7.97
2017-04-26T04:55:26.161Z,7.96
2017-04-26T04:56:25.863Z,8.02
2017-04-26T04:57:25.886Z,8
2017-04-26T04:58:25.625Z,8.02
2017-04-26T04:59:25.656Z,7.97
2017-04-26T05:00:25.684Z,8.07
2017-04-26T05:01:25.724Z,8.07
2017-04-26T05:02:26.364Z,8.07
2017-04-26T05:03:26.098Z,8.1
2017-04-26T05:04:25.819Z,8.11
2017-04-26T05:05:25.851Z,8.04
2017-04-26T05:06:26.438Z,7.93
2017-04-26T05:07:25.939Z,8.03
2017-04-26T05:08:26.261Z,8.03
2017-04-26T05:09:26.300Z,7.96
2017-04-26T05:10:26.028Z,8
2017-04-26T05:11:26.062Z,8.07
2017-04-26T05:12:26.416Z,8.04
2017-04-26T05:13:26.442Z,8.08
2017-04-26T05:14:26.819Z,8.04
2017-04-26T05:15:26.804Z,8.04
2017-04-26T05:16:26.224Z,8.07
2017-04-26T05:17:26.268Z,8
2017-04-26T05:18:26.611Z,8.1
2017-04-26T05:19:26.637Z,8.03
2017-04-26T05:20:26.681Z,7.99
2017-04-26T05:21:26.707Z,8.03
2017-04-26T05:22:26.746Z,8.03
2017-04-26T05:23:26.787Z,8
2017-04-26T05:24:26.500Z,8.04
2017-04-26T05:25:27.160Z,7.99
2017-04-26T05:26:26.565Z,7.99
2017-04-26T05:27:26.601Z,8.02
2017-04-26T05:28:27.261Z,7.94
2017-04-26T05:29:26.672Z,8.03
2017-04-26T05:30:26.704Z,8.04
2017-04-26T05:31:27.075Z,8.1
2017-04-26T05:32:27.082Z,8.12
2017-04-26T05:33:27.115Z,8
2017-04-26T05:34:26.840Z,8.12
2017-04-26T05:35:27.503Z,8.14
2017-04-26T05:36:27.531Z,8.07
2017-04-26T05:37:27.253Z,8.21
2017-04-26T05:38:27.454Z,8.1
2017-04-26T05:39:27.321Z,8.12
2017-04-26T05:40:27.048Z,8.11
2017-04-26T05:41:27.384Z,8.15
2017-04-26T05:42:27.855Z,8.17
2017-04-26T05:43:27.464Z,8.11
2017-04-26T05:44:27.804Z,8.1
2017-04-26T05:45:27.244Z,8.18
2017-04-26T05:46:27.866Z,8.18
2017-04-26T05:47:27.922Z,8.2
2017-04-26T05:48:27.934Z,8.14
2017-04-26T05:49:27.659Z,8.26
2017-04-26T05:50:27.389Z,8.28
2017-04-26T05:51:27.415Z,8.26
2017-04-26T05:52:27.466Z,8.25
2017-04-26T05:53:27.792Z,8.3
2017-04-26T05:54:28.137Z,8.21
2017-04-26T05:55:27.560Z,8.29
2017-04-26T05:56:27.899Z,8.3
2017-04-26T05:57:27.930Z,8.29
2017-04-26T05:58:28.281Z,8.29
2017-04-26T05:59:27.768Z,8.28
2017-04-26T06:00:27.730Z,8.39
2017-04-26T06:01:27.794Z,8.36
2017-04-26T06:02:28.105Z,8.26
2017-04-26T06:03:28.136Z,8.4
2017-04-26T06:04:28.178Z,8.35
2017-04-26T06:05:27.899Z,8.4
2017-04-26T06:06:27.929Z,8.4
2017-04-26T06:07:28.584Z,8.4
2017-04-26T06:08:28.342Z,8.4
2017-04-26T06:09:28.039Z,8.51
2017-04-26T06:10:28.684Z,8.55
2017-04-26T06:11:28.099Z,8.5
2017-04-26T06:12:28.139Z,8.58
2017-04-26T06:13:28.488Z,8.47
2017-04-26T06:14:28.519Z,8.55
2017-04-26T06:15:28.276Z,8.62
2017-04-26T06:16:28.280Z,8.6
2017-04-26T06:17:28.621Z,8.72
2017-04-26T06:18:28.690Z,8.71
2017-04-26T06:19:28.379Z,8.69
2017-04-26T06:20:28.410Z,8.75
2017-04-26T06:21:28.778Z,8.79
2017-04-26T06:22:28.486Z,8.81
2017-04-26T06:23:28.519Z,8.83
2017-04-26T06:24:28.649Z,8.76
2017-04-26T06:25:28.582Z,8.76
2017-04-26T06:26:28.628Z,8.78
2017-04-26T06:27:28.723Z,8.81
2017-04-26T06:28:28.694Z,8.83
2017-04-26T06:29:28.768Z,8.86
2017-04-26T06:30:28.768Z,8.88
2017-04-26T06:31:28.804Z,8.9
2017-04-26T06:32:28.830Z,8.94
2017-04-26T06:33:28.864Z,8.93
2017-04-26T06:34:28.902Z,8.93
2017-04-26T06:35:28.932Z,8.97
2017-04-26T06:36:28.965Z,8.9
2017-04-26T06:37:29.009Z,8.96
2017-04-26T06:38:29.343Z,8.96
2017-04-26T06:39:29.692Z,8.97
2017-04-26T06:40:29.109Z,8.99
2017-04-26T06:41:29.143Z,9.1
2017-04-26T06:42:29.201Z,9.09
2017-04-26T06:43:29.209Z,9.06
2017-04-26T06:44:29.861Z,9.13
2017-04-26T06:45:29.589Z,9.12
2017-04-26T06:46:29.319Z,9.2
2017-04-26T06:47:29.689Z,9.24
2017-04-26T06:48:29.395Z,9.2
2017-04-26T06:49:29.434Z,9.21
2017-04-26T06:50:29.768Z,9.27
2017-04-26T06:51:29.802Z,9.32
2017-04-26T06:52:29.525Z,9.32
2017-04-26T06:53:29.562Z,9.39
2017-04-26T06:54:29.596Z,9.34
2017-04-26T06:55:29.633Z,9.43
2017-04-26T06:56:29.670Z,9.52
2017-04-26T06:57:30.323Z,9.5
2017-04-26T06:58:30.061Z,9.58
2017-04-26T06:59:30.079Z,9.53
2017-04-26T07:00:30.117Z,9.53
2017-04-26T07:01:29.842Z,9.66
2017-04-26T07:02:29.887Z,9.67
2017-04-26T07:03:30.226Z,9.58
2017-04-26T07:04:30.256Z,9.61
2017-04-26T07:05:30.285Z,9.66
2017-04-26T07:06:30.020Z,9.64
2017-04-26T07:07:30.357Z,9.58
2017-04-26T07:08:30.397Z,9.6
2017-04-26T07:09:30.131Z,9.63
2017-04-26T07:10:30.241Z,9.67
2017-04-26T07:11:30.502Z,9.64
2017-04-26T07:12:30.539Z,9.7
2017-04-26T07:13:30.885Z,9.73
2017-04-26T07:14:30.307Z,9.81
2017-04-26T07:15:30.650Z,9.66
2017-04-26T07:16:30.672Z,9.81
2017-04-26T07:17:30.407Z,9.75
2017-04-26T07:18:30.755Z,9.71
2017-04-26T07:19:30.477Z,9.83
2017-04-26T07:20:30.511Z,9.86
2017-04-26T07:21:30.555Z,9.82
2017-04-26T07:22:30.897Z,9.88
2017-04-26T07:23:30.618Z,9.86
2017-04-26T07:24:30.652Z,9.88
2017-04-26T07:25:31.506Z,10
2017-04-26T07:26:30.722Z,9.97
2017-04-26T07:27:31.072Z,10
2017-04-26T07:28:31.102Z,10.07
2017-04-26T07:29:30.848Z,9.94
2017-04-26T07:30:31.172Z,9.89
2017-04-26T07:31:30.914Z,9.97
2017-04-26T07:32:30.940Z,10.04
2017-04-26T07:33:30.969Z,10.03
2017-04-26T07:34:34.837Z,10.03
2017-04-26T07:35:31.111Z,9.99
2017-04-26T07:36:31.080Z,9.96
2017-04-26T07:37:31.127Z,9.99
2017-04-26T07:38:31.467Z,10.03
2017-04-26T07:39:31.502Z,10.04
2017-04-26T07:40:31.220Z,10.03
2017-04-26T07:41:31.266Z,10
2017-04-26T07:42:31.293Z,10.04
2017-04-26T07:43:31.329Z,9.99
2017-04-26T07:44:31.363Z,10.09
2017-04-26T07:45:31.400Z,10.09
2017-04-26T07:46:31.437Z,10.17
2017-04-26T07:47:31.781Z,10.09
2017-04-26T07:48:31.504Z,10.15
2017-04-26T07:49:31.538Z,10.19
2017-04-26T07:50:32.195Z,10.22
2017-04-26T07:51:31.615Z,10.18
2017-04-26T07:52:31.959Z,10.28
2017-04-26T07:53:31.993Z,10.18
2017-04-26T07:54:31.715Z,10.3
2017-04-26T07:55:31.756Z,10.19
2017-04-26T07:56:31.786Z,10.26
2017-04-26T07:57:31.822Z,10.28
2017-04-26T07:58:31.873Z,10.33
2017-04-26T07:59:31.902Z,10.43
2017-04-26T08:00:31.945Z,10.39
2017-04-26T08:01:31.970Z,10.42
2017-04-26T08:02:32.309Z,10.47
2017-04-26T08:03:32.106Z,10.47
2017-04-26T08:04:32.072Z,10.55
2017-04-26T08:05:32.124Z,10.51
2017-04-26T08:06:32.461Z,10.6
2017-04-26T08:07:32.187Z,10.62
2017-04-26T08:08:32.529Z,10.6
2017-04-26T08:09:32.262Z,10.58
2017-04-26T08:10:32.382Z,10.76
2017-04-26T08:11:32.336Z,10.7
2017-04-26T08:12:32.370Z,10.84
2017-04-26T08:13:32.444Z,10.84
2017-04-26T08:14:32.438Z,10.86
2017-04-26T08:15:32.474Z,10.98
2017-04-26T08:16:32.515Z,10.98
2017-04-26T08:17:32.554Z,11.03
2017-04-26T08:18:33.113Z,11.07
2017-04-26T08:19:32.625Z,11.21
2017-04-26T08:20:32.969Z,11.24
2017-04-26T08:21:32.696Z,11.29
2017-04-26T08:22:32.851Z,11.31
2017-04-26T08:23:32.766Z,11.36
2017-04-26T08:24:33.534Z,11.49
2017-04-26T08:25:33.265Z,11.46
2017-04-26T08:26:33.183Z,11.35
2017-04-26T08:27:32.941Z,11.32
2017-04-26T08:28:32.958Z,11.47
2017-04-26T08:29:33.294Z,11.43
2017-04-26T08:30:33.018Z,11.43
2017-04-26T08:31:33.368Z,11.47
2017-04-26T08:32:33.158Z,11.62
2017-04-26T08:33:33.133Z,11.68
2017-04-26T08:34:33.173Z,11.78
2017-04-26T08:35:33.531Z,11.9
2017-04-26T08:36:33.288Z,12.04
2017-04-26T08:37:33.285Z,12.08
2017-04-26T08:38:33.327Z,12.21
2017-04-26T08:39:33.369Z,12.16
2017-04-26T08:40:33.398Z,12.24
2017-04-26T08:41:33.429Z,12.23
2017-04-26T08:42:33.468Z,12.27
2017-04-26T08:43:33.813Z,12.34
2017-04-26T08:44:33.547Z,12.37
2017-04-26T08:45:33.583Z,12.48
2017-04-26T08:46:33.930Z,12.59
2017-04-26T08:47:33.672Z,12.63
2017-04-26T08:48:34.006Z,12.62
2017-04-26T08:49:33.745Z,12.77
2017-04-26T08:50:33.781Z,12.87
2017-04-26T08:51:34.001Z,12.89
2017-04-26T08:52:33.865Z,13
2017-04-26T08:53:33.887Z,13.15
2017-04-26T08:54:34.234Z,13.12
2017-04-26T08:55:33.966Z,13.15
2017-04-26T08:56:34.063Z,13.21
2017-04-26T08:57:34.335Z,13.37
2017-04-26T08:58:34.106Z,13.38
2017-04-26T08:59:34.115Z,13.43
2017-04-26T09:00:34.165Z,13.36
2017-04-26T09:01:34.192Z,13.37
2017-04-26T09:02:34.229Z,13.27
2017-04-26T09:03:34.271Z,13.32
2017-04-26T09:04:34.315Z,13.37
2017-04-26T09:05:34.656Z,13.25
2017-04-26T09:06:34.410Z,13.2
2017-04-26T09:07:34.522Z,13.24
2017-04-26T09:08:34.520Z,13.2
2017-04-26T09:09:34.865Z,13.21
2017-04-26T09:10:34.537Z,13.27
2017-04-26T09:11:35.196Z,13.27
2017-04-26T09:12:34.612Z,13.29
2017-04-26T09:13:34.955Z,13.25
2017-04-26T09:14:34.699Z,13.32
2017-04-26T09:15:35.033Z,13.37
2017-04-26T09:16:34.767Z,13.33
2017-04-26T09:17:35.121Z,13.36
2017-04-26T09:18:34.839Z,13.4
2017-04-26T09:19:34.877Z,13.38
2017-04-26T09:20:34.925Z,13.27
2017-04-26T09:21:34.957Z,13.38
2017-04-26T09:22:35.617Z,13.25
2017-04-26T09:23:35.027Z,13.32
2017-04-26T09:24:35.422Z,13.25
2017-04-26T09:25:35.114Z,13.21
2017-04-26T09:26:35.153Z,13.3
2017-04-26T09:27:35.185Z,13.15
2017-04-26T09:28:35.222Z,13.21
2017-04-26T09:29:35.257Z,13.22
2017-04-26T09:30:35.306Z,13.22
2017-04-26T09:31:35.337Z,13.2
2017-04-26T09:32:35.374Z,13.17
2017-04-26T09:33:35.410Z,13.22
2017-04-26T09:34:35.762Z,13.15
2017-04-26T09:35:35.491Z,13.21
2017-04-26T09:36:35.524Z,13.32
2017-04-26T09:37:35.564Z,13.18
2017-04-26T09:38:35.915Z,13.14
2017-04-26T09:39:35.642Z,13.15
2017-04-26T09:40:35.711Z,13.18
2017-04-26T09:41:36.029Z,13.22
2017-04-26T09:42:36.063Z,13.14
2017-04-26T09:43:35.793Z,13.24
2017-04-26T09:44:36.143Z,13.36
2017-04-26T09:45:35.869Z,13.22
2017-04-26T09:46:35.908Z,13.24
2017-04-26T09:47:36.564Z,13.3
2017-04-26T09:48:35.982Z,13.38
2017-04-26T09:49:36.333Z,13.32
2017-04-26T09:50:36.107Z,13.4
2017-04-26T09:51:36.099Z,13.32
2017-04-26T09:52:36.137Z,13.33
2017-04-26T09:53:36.481Z,13.38
2017-04-26T09:54:36.209Z,13.24
2017-04-26T09:55:36.255Z,13.29
2017-04-26T09:56:36.290Z,13.33
2017-04-26T09:57:36.635Z,13.21
2017-04-26T09:58:36.669Z,13.2
2017-04-26T09:59:37.018Z,13.32
2017-04-26T10:00:36.746Z,13.18
2017-04-26T10:01:37.094Z,13.24
2017-04-26T10:02:36.513Z,13.15
2017-04-26T10:03:36.556Z,13.27
2017-04-26T10:04:36.590Z,13.18
2017-04-26T10:05:36.934Z,13.18
2017-04-26T10:06:36.671Z,13.09
2017-04-26T10:07:37.014Z,13.24
2017-04-26T10:08:37.046Z,13.12
2017-04-26T10:09:36.779Z,13.21
2017-04-26T10:10:36.817Z,13.14
2017-04-26T10:11:36.857Z,13.17
2017-04-26T10:12:36.890Z,13.07
2017-04-26T10:13:37.243Z,13.11
2017-04-26T10:15:07.923Z,13.06
2017-04-26T10:15:37.003Z,13.11
2017-04-26T10:16:37.045Z,13.09
2017-04-26T10:17:37.391Z,13.14
2017-04-26T10:18:37.117Z,13.14
2017-04-26T10:19:37.463Z,13.07
2017-04-26T10:20:37.190Z,13.03
2017-04-26T10:21:37.231Z,13.04
2017-04-26T10:22:37.575Z,13.07
2017-04-26T10:23:37.305Z,13.09
2017-04-26T10:24:37.357Z,13.02
2017-04-26T10:25:37.379Z,13.15
2017-04-26T10:26:37.414Z,13.11
2017-04-26T10:27:37.776Z,13.03
2017-04-26T10:28:53.706Z,13.07
2017-04-26T10:29:38.146Z,13.06
2017-04-26T10:30:47.374Z,13.12
2017-04-26T10:31:38.559Z,13.14
2017-04-26T10:32:37.647Z,13.14
2017-04-26T10:33:37.684Z,13.17
2017-04-26T10:34:37.724Z,13.2
2017-04-26T10:35:37.765Z,13.15
2017-04-26T10:36:37.806Z,13.17
2017-04-26T10:37:37.835Z,13.24
2017-04-26T10:38:37.869Z,13.32
2017-04-26T10:39:37.910Z,13.24
2017-04-26T10:40:37.960Z,13.22
2017-04-26T10:41:37.991Z,13.2
2017-04-26T10:42:45.535Z,13.27
2017-04-26T10:43:38.369Z,13.22
2017-04-26T10:44:38.100Z,13.29
2017-04-26T10:45:38.447Z,13.22
2017-04-26T10:46:38.175Z,13.32
2017-04-26T10:47:38.212Z,13.24
2017-04-26T10:48:38.245Z,13.22
2017-04-26T10:49:38.597Z,13.36
2017-04-26T10:50:38.330Z,13.38
2017-04-26T10:51:38.671Z,13.49
2017-04-26T10:52:38.404Z,13.43
2017-04-26T10:53:38.437Z,13.46
2017-04-26T10:54:39.090Z,13.38
2017-04-26T10:55:38.515Z,13.47
2017-04-26T10:56:38.553Z,13.46
2017-04-26T10:57:38.899Z,13.49
2017-04-26T10:58:38.634Z,13.54
2017-04-26T10:59:39.041Z,13.52
2017-04-26T11:00:38.703Z,13.55
2017-04-26T11:01:39.359Z,13.56
2017-04-26T11:02:39.426Z,13.51
2017-04-26T11:03:38.819Z,13.61
2017-04-26T11:04:38.855Z,13.59
2017-04-26T11:05:38.897Z,13.58
2017-04-26T11:06:38.930Z,13.56
2017-04-26T11:07:38.972Z,13.59
2017-04-26T11:08:39.109Z,13.56
2017-04-26T11:09:39.051Z,13.7
2017-04-26T11:10:39.088Z,13.7
2017-04-26T11:11:39.197Z,13.73
2017-04-26T11:12:39.162Z,13.76
2017-04-26T11:13:39.203Z,13.88
2017-04-26T11:14:39.237Z,13.79
2017-04-26T11:15:39.274Z,13.8
2017-04-26T11:16:39.316Z,13.73
2017-04-26T11:17:39.353Z,13.76
2017-04-26T11:18:39.400Z,13.62
2017-04-26T11:19:39.431Z,13.69
2017-04-26T11:20:39.472Z,13.71
2017-04-26T11:21:39.506Z,13.69
2017-04-26T11:22:39.856Z,13.71
2017-04-26T11:23:39.586Z,13.58
2017-04-26T11:24:39.618Z,13.61
2017-04-26T11:25:39.971Z,13.59
2017-04-26T11:26:40.004Z,13.59
2017-04-26T11:27:39.734Z,13.59
2017-04-26T11:28:39.781Z,13.58
2017-04-26T11:29:39.882Z,13.51
2017-04-26T11:30:40.156Z,13.55
2017-04-26T11:31:39.979Z,13.54
2017-04-26T11:32:39.923Z,13.59
2017-04-26T11:33:40.274Z,13.49
2017-04-26T11:34:40.312Z,13.51
2017-04-26T11:35:40.351Z,13.41
2017-04-26T11:36:40.076Z,13.49
2017-04-26T11:37:40.431Z,13.49
2017-04-26T11:38:40.152Z,13.44
2017-04-26T11:39:40.303Z,13.52
2017-04-26T11:40:40.227Z,13.51
2017-04-26T11:41:40.275Z,13.41
2017-04-26T11:42:40.617Z,13.54
2017-04-26T11:43:40.341Z,13.44
2017-04-26T11:44:40.392Z,13.55
2017-04-26T11:45:40.421Z,13.56
2017-04-26T11:46:40.456Z,13.52
2017-04-26T11:47:40.492Z,13.55
2017-04-26T11:48:40.529Z,13.47
2017-04-26T11:49:40.613Z,13.52
2017-04-26T11:50:40.915Z,13.52
2017-04-26T11:51:41.288Z,13.54
2017-04-26T11:52:40.681Z,13.52
2017-04-26T11:53:41.027Z,13.58
2017-04-26T11:54:40.757Z,13.62
2017-04-26T11:55:40.807Z,13.61
2017-04-26T11:56:41.142Z,13.55
2017-04-26T11:57:40.872Z,13.69
2017-04-26T11:58:41.219Z,13.62
2017-04-26T11:59:40.954Z,13.69
2017-04-26T12:00:40.987Z,13.65
2017-04-26T12:01:41.037Z,13.71
2017-04-26T12:02:41.064Z,13.59
2017-04-26T12:03:41.097Z,13.63
2017-04-26T12:04:41.142Z,13.7
2017-04-26T12:05:41.211Z,13.74
2017-04-26T12:06:41.246Z,13.73
2017-04-26T12:07:41.563Z,13.77
2017-04-26T12:08:41.600Z,13.77
2017-04-26T12:09:41.634Z,13.87
2017-04-26T12:10:41.380Z,13.87
2017-04-26T12:11:41.711Z,13.89
2017-04-26T12:12:41.444Z,13.91
2017-04-26T12:13:41.484Z,13.96
2017-04-26T12:14:41.521Z,14.09
2017-04-26T12:15:41.864Z,14.13
2017-04-26T12:16:41.593Z,14.25
2017-04-26T12:17:41.687Z,14.32
2017-04-26T12:18:41.744Z,14.28
2017-04-26T12:19:41.708Z,14.31
2017-04-26T12:20:41.847Z,14.43
2017-04-26T12:21:42.094Z,14.54
2017-04-26T12:22:41.825Z,14.68
2017-04-26T12:23:41.861Z,14.71
2017-04-26T12:24:42.209Z,14.88
2017-04-26T12:25:41.938Z,14.95
2017-04-26T12:26:41.980Z,14.94
2017-04-26T12:27:42.291Z,15.05
2017-04-26T12:28:42.096Z,15.11
2017-04-26T12:29:44.150Z,15.01
2017-04-26T12:30:44.950Z,15.03
2017-04-26T12:31:42.177Z,14.98
2017-04-26T12:32:42.212Z,14.9
2017-04-26T12:33:42.561Z,14.71
2017-04-26T12:34:42.917Z,14.69
2017-04-26T12:35:42.329Z,14.67
2017-04-26T12:36:42.367Z,14.64
2017-04-26T12:37:42.733Z,14.65
2017-04-26T12:38:42.447Z,14.71
2017-04-26T12:39:42.486Z,14.69
2017-04-26T12:40:42.525Z,14.81
2017-04-26T12:41:42.868Z,14.65
2017-04-26T12:42:42.647Z,14.64
2017-04-26T12:43:42.665Z,14.65
2017-04-26T12:44:42.680Z,14.78
2017-04-26T12:45:42.720Z,14.87
2017-04-26T12:46:43.068Z,14.91
2017-04-26T12:47:43.106Z,14.94
2017-04-26T12:48:42.836Z,14.95
2017-04-26T12:49:42.877Z,14.99
2017-04-26T12:50:42.916Z,15.01
2017-04-26T12:51:43.122Z,14.94
2017-04-26T12:52:42.992Z,15.01
2017-04-26T12:53:43.337Z,14.94
2017-04-26T12:54:43.073Z,14.88
2017-04-26T12:55:43.420Z,14.86
2017-04-26T12:56:43.150Z,14.81
2017-04-26T12:57:43.191Z,14.75
2017-04-26T12:58:43.231Z,14.84
2017-04-26T12:59:43.267Z,14.72
2017-04-26T13:00:43.615Z,14.8
2017-04-26T13:01:43.348Z,14.83
2017-04-26T13:02:43.696Z,14.93
2017-04-26T13:03:43.428Z,14.94
2017-04-26T13:04:43.464Z,14.91
2017-04-26T13:05:43.617Z,14.88
2017-04-26T13:06:43.542Z,14.9
2017-04-26T13:07:43.577Z,14.88
2017-04-26T13:08:43.625Z,14.88
2017-04-26T13:09:43.656Z,14.91
2017-04-26T13:10:43.704Z,14.88
2017-04-26T13:11:43.735Z,14.86